sensor_id;sensor_type;location;lat;lon;timestamp;temperature;humidity
4647;DHT22;2336;47.822;7.564;2022-09-30T03:02:27;10.20;99.90
4647;DHT22;2336;47.822;7.564;2022-09-30T03:04:54;10.30;99.90
4647;DHT22;2336;47.822;7.564;2022-09-30T03:07:21;10.30;99.90
4647;DHT22;2336;47.822;7.564;2022-09-30T03:09:48;10.30;99.90
4647;DHT22;2336;47.822;7.564;2022-09-30T03:12:24;10.30;99.90
4647;DHT22;2336;47.822;7.564;2022-09-30T03:15:09;10.30;99.90
4647;DHT22;2336;47.822;7.564;2022-09-30T03:17:53;10.30;99.90
4647;DHT22;2336;47.822;7.564;2022-09-30T03:20:34;10.30;99.90
4647;DHT22;2336;47.822;7.564;2022-09-30T03:23:21;10.30;99.90
4647;DHT22;2336;47.822;7.564;2022-09-30T03:25:57;10.20;99.90
4647;DHT22;2336;47.822;7.564;2022-09-30T03:28:32;10.10;99.90
4647;DHT22;2336;47.822;7.564;2022-09-30T03:31:09;10.20;99.90
4647;DHT22;2336;47.822;7.564;2022-09-30T03:33:44;10.20;99.90
4647;DHT22;2336;47.822;7.564;2022-09-30T03:36:21;10.20;99.90
4647;DHT22;2336;47.822;7.564;2022-09-30T03:38:54;10.20;99.90
4647;DHT22;2336;47.822;7.564;2022-09-30T03:41:27;10.20;99.90
4647;DHT22;2336;47.822;7.564;2022-09-30T03:44:00;10.20;99.90
4647;DHT22;2336;47.822;7.564;2022-09-30T03:46:32;10.20;99.90
4647;DHT22;2336;47.822;7.564;2022-09-30T03:49:03;10.20;99.90
4647;DHT22;2336;47.822;7.564;2022-09-30T03:51:35;10.30;99.90
4647;DHT22;2336;47.822;7.564;2022-09-30T03:54:05;10.30;99.90
4647;DHT22;2336;47.822;7.564;2022-09-30T03:56:33;10.20;99.90
4647;DHT22;2336;47.822;7.564;2022-09-30T03:59:00;10.20;99.90
4647;DHT22;2336;47.822;7.564;2022-09-30T04:01:26;10.20;99.90
4647;DHT22;2336;47.822;7.564;2022-09-30T04:03:54;10.20;99.90
4647;DHT22;2336;47.822;7.564;2022-09-30T04:06:23;10.20;99.90
4647;DHT22;2336;47.822;7.564;2022-09-30T04:08:50;10.10;99.90
4647;DHT22;2336;47.822;7.564;2022-09-30T04:11:18;10.10;99.90
4647;DHT22;2336;47.822;7.564;2022-09-30T04:13:45;10.10;99.90
4647;DHT22;2336;47.822;7.564;2022-09-30T04:16:12;10.10;99.90
4647;DHT22;2336;47.822;7.564;2022-09-30T04:18:39;10.10;99.90
4647;DHT22;2336;47.822;7.564;2022-09-30T04:21:07;10.10;99.90
4647;DHT22;2336;47.822;7.564;2022-09-30T04:23:37;10.10;99.90
4647;DHT22;2336;47.822;7.564;2022-09-30T04:26:05;10.20;99.90
4647;DHT22;2336;47.822;7.564;2022-09-30T04:28:34;10.20;99.90
4647;DHT22;2336;47.822;7.564;2022-09-30T04:31:02;10.10;99.90
4647;DHT22;2336;47.822;7.564;2022-09-30T04:33:30;10.20;99.90
4647;DHT22;2336;47.822;7.564;2022-09-30T04:35:58;10.20;99.90
4647;DHT22;2336;47.822;7.564;2022-09-30T04:38:26;10.20;99.90
4647;DHT22;2336;47.822;7.564;2022-09-30T04:40:55;10.20;99.90
4647;DHT22;2336;47.822;7.564;2022-09-30T04:43:22;10.20;99.90
4647;DHT22;2336;47.822;7.564;2022-09-30T04:45:50;10.30;99.90
4647;DHT22;2336;47.822;7.564;2022-09-30T04:48:18;10.30;99.90
4647;DHT22;2336;47.822;7.564;2022-09-30T04:50:46;10.30;99.90
4647;DHT22;2336;47.822;7.564;2022-09-30T04:53:13;10.30;99.90
4647;DHT22;2336;47.822;7.564;2022-09-30T04:55:40;10.30;99.90
4647;DHT22;2336;47.822;7.564;2022-09-30T04:58:08;10.30;99.90
4647;DHT22;2336;47.822;7.564;2022-09-30T05:00:35;10.20;99.90
4647;DHT22;2336;47.822;7.564;2022-09-30T05:03:03;10.20;99.90
4647;DHT22;2336;47.822;7.564;2022-09-30T05:05:30;10.30;99.90
4647;DHT22;2336;47.822;7.564;2022-09-30T05:07:59;10.20;99.90
4647;DHT22;2336;47.822;7.564;2022-09-30T05:10:26;10.20;99.90
4647;DHT22;2336;47.822;7.564;2022-09-30T05:12:55;10.20;99.90
4647;DHT22;2336;47.822;7.564;2022-09-30T05:15:23;10.10;99.90
4647;DHT22;2336;47.822;7.564;2022-09-30T05:17:50;10.20;99.90
4647;DHT22;2336;47.822;7.564;2022-09-30T05:20:17;10.10;99.90
4647;DHT22;2336;47.822;7.564;2022-09-30T05:22:44;10.20;99.90
4647;DHT22;2336;47.822;7.564;2022-09-30T05:25:11;10.10;99.90
4647;DHT22;2336;47.822;7.564;2022-09-30T05:27:38;10.10;99.90
4647;DHT22;2336;47.822;7.564;2022-09-30T10:32:53;12.50;99.90
4647;DHT22;2336;47.822;7.564;2022-09-30T10:35:22;12.70;99.90
4647;DHT22;2336;47.822;7.564;2022-09-30T10:37:50;12.70;99.90
4647;DHT22;2336;47.822;7.564;2022-09-30T10:40:18;12.80;99.90
4647;DHT22;2336;47.822;7.564;2022-09-30T10:42:47;12.90;99.90
4647;DHT22;2336;47.822;7.564;2022-09-30T10:45:19;13.00;99.90
4647;DHT22;2336;47.822;7.564;2022-09-30T10:47:49;12.90;99.90
4647;DHT22;2336;47.822;7.564;2022-09-30T10:50:20;13.10;99.90
4647;DHT22;2336;47.822;7.564;2022-09-30T10:52:53;13.30;99.90
4647;DHT22;2336;47.822;7.564;2022-09-30T10:55:31;13.50;99.90
4647;DHT22;2336;47.822;7.564;2022-09-30T10:58:21;13.70;99.90
4647;DHT22;2336;47.822;7.564;2022-09-30T11:00:52;13.80;99.90
4647;DHT22;2336;47.822;7.564;2022-09-30T11:03:27;13.90;99.90
4647;DHT22;2336;47.822;7.564;2022-09-30T11:05:59;13.70;99.90
4647;DHT22;2336;47.822;7.564;2022-09-30T11:08:32;13.40;99.90
4647;DHT22;2336;47.822;7.564;2022-09-30T11:11:06;13.20;99.90
4647;DHT22;2336;47.822;7.564;2022-09-30T11:13:38;12.90;99.90
4647;DHT22;2336;47.822;7.564;2022-09-30T11:16:12;12.80;99.90
4647;DHT22;2336;47.822;7.564;2022-09-30T11:18:46;12.80;99.90
4647;DHT22;2336;47.822;7.564;2022-09-30T11:21:18;12.80;99.90
4647;DHT22;2336;47.822;7.564;2022-09-30T11:23:49;12.80;99.90
4647;DHT22;2336;47.822;7.564;2022-09-30T11:26:32;12.90;99.90
4647;DHT22;2336;47.822;7.564;2022-09-30T11:29:10;13.20;99.90
4647;DHT22;2336;47.822;7.564;2022-09-30T11:31:48;13.30;99.90
4647;DHT22;2336;47.822;7.564;2022-09-30T11:34:35;13.50;99.90
4647;DHT22;2336;47.822;7.564;2022-09-30T11:37:14;13.80;99.90
4647;DHT22;2336;47.822;7.564;2022-09-30T11:39:49;14.00;99.90
4647;DHT22;2336;47.822;7.564;2022-09-30T11:42:22;14.00;99.90
4647;DHT22;2336;47.822;7.564;2022-09-30T11:44:58;14.00;99.90
4647;DHT22;2336;47.822;7.564;2022-09-30T11:47:44;14.00;99.90
4647;DHT22;2336;47.822;7.564;2022-09-30T11:50:27;14.10;99.90
4647;DHT22;2336;47.822;7.564;2022-09-30T11:53:06;14.40;99.90
4647;DHT22;2336;47.822;7.564;2022-09-30T11:55:47;14.60;99.90
4647;DHT22;2336;47.822;7.564;2022-09-30T11:58:19;14.80;99.90
4647;DHT22;2336;47.822;7.564;2022-09-30T12:00:50;14.90;99.90
4647;DHT22;2336;47.822;7.564;2022-09-30T12:03:23;15.00;99.90
4647;DHT22;2336;47.822;7.564;2022-09-30T12:05:53;15.20;99.90
4647;DHT22;2336;47.822;7.564;2022-09-30T12:08:28;15.30;99.90
4647;DHT22;2336;47.822;7.564;2022-09-30T12:10:58;15.40;99.90
4647;DHT22;2336;47.822;7.564;2022-09-30T12:13:28;15.40;99.90
4647;DHT22;2336;47.822;7.564;2022-09-30T12:15:57;15.10;99.90
4647;DHT22;2336;47.822;7.564;2022-09-30T12:18:29;15.30;99.90
4647;DHT22;2336;47.822;7.564;2022-09-30T12:20:59;15.60;99.90
4647;DHT22;2336;47.822;7.564;2022-09-30T12:23:31;15.70;99.90
4647;DHT22;2336;47.822;7.564;2022-09-30T12:26:01;15.70;99.90
4647;DHT22;2336;47.822;7.564;2022-09-30T12:28:32;15.90;99.90
4647;DHT22;2336;47.822;7.564;2022-09-30T12:31:37;16.20;99.90
4647;DHT22;2336;47.822;7.564;2022-09-30T12:34:20;16.30;99.90
4647;DHT22;2336;47.822;7.564;2022-09-30T12:36:57;16.20;99.90
4647;DHT22;2336;47.822;7.564;2022-09-30T12:39:49;16.10;99.90
4647;DHT22;2336;47.822;7.564;2022-09-30T12:42:36;16.10;99.90
4647;DHT22;2336;47.822;7.564;2022-09-30T12:45:32;16.20;99.90
4647;DHT22;2336;47.822;7.564;2022-09-30T12:48:03;16.30;99.90
4647;DHT22;2336;47.822;7.564;2022-09-30T12:50:34;16.10;99.90
4647;DHT22;2336;47.822;7.564;2022-09-30T12:53:11;15.90;99.90
4647;DHT22;2336;47.822;7.564;2022-09-30T12:55:42;15.60;99.90
4647;DHT22;2336;47.822;7.564;2022-09-30T12:58:18;15.30;99.90
4647;DHT22;2336;47.822;7.564;2022-09-30T13:00:58;15.40;99.90
4647;DHT22;2336;47.822;7.564;2022-09-30T13:03:26;15.70;99.90
4647;DHT22;2336;47.822;7.564;2022-09-30T13:05:55;15.90;99.90
4647;DHT22;2336;47.822;7.564;2022-09-30T13:08:36;15.90;99.90
4647;DHT22;2336;47.822;7.564;2022-09-30T13:11:27;16.00;99.90
4647;DHT22;2336;47.822;7.564;2022-09-30T13:13:57;15.90;99.90
4647;DHT22;2336;47.822;7.564;2022-09-30T13:19:31;16.00;99.90
4647;DHT22;2336;47.822;7.564;2022-09-30T13:25:16;15.40;99.90
4647;DHT22;2336;47.822;7.564;2022-09-30T13:27:47;15.30;99.90
4647;DHT22;2336;47.822;7.564;2022-09-30T13:30:38;15.40;99.90
4647;DHT22;2336;47.822;7.564;2022-09-30T13:33:27;15.40;99.90
4647;DHT22;2336;47.822;7.564;2022-09-30T13:36:04;15.60;99.90
4647;DHT22;2336;47.822;7.564;2022-09-30T13:38:37;15.60;99.90
4647;DHT22;2336;47.822;7.564;2022-09-30T13:41:12;15.60;99.90
4647;DHT22;2336;47.822;7.564;2022-09-30T13:43:46;15.80;99.90
4647;DHT22;2336;47.822;7.564;2022-09-30T13:46:22;16.00;99.90
4647;DHT22;2336;47.822;7.564;2022-09-30T13:48:54;16.10;99.90
4647;DHT22;2336;47.822;7.564;2022-09-30T13:51:24;16.00;99.90
4647;DHT22;2336;47.822;7.564;2022-09-30T13:53:54;16.10;99.90
4647;DHT22;2336;47.822;7.564;2022-09-30T13:56:25;16.00;99.90
4647;DHT22;2336;47.822;7.564;2022-09-30T13:59:19;16.00;99.90
4647;DHT22;2336;47.822;7.564;2022-09-30T14:01:57;16.00;99.90
4647;DHT22;2336;47.822;7.564;2022-09-30T14:04:47;16.00;99.90
4647;DHT22;2336;47.822;7.564;2022-09-30T14:07:25;16.00;99.90
4647;DHT22;2336;47.822;7.564;2022-09-30T14:10:07;16.10;99.90
4647;DHT22;2336;47.822;7.564;2022-09-30T14:12:46;16.20;99.90
4647;DHT22;2336;47.822;7.564;2022-09-30T14:15:31;16.20;99.90
4647;DHT22;2336;47.822;7.564;2022-09-30T14:18:22;16.20;99.90
4647;DHT22;2336;47.822;7.564;2022-09-30T14:21:02;16.30;99.90
4647;DHT22;2336;47.822;7.564;2022-09-30T14:23:31;16.00;99.90
4647;DHT22;2336;47.822;7.564;2022-09-30T14:26:06;15.90;99.90
4647;DHT22;2336;47.822;7.564;2022-09-30T14:28:39;16.00;99.90
4647;DHT22;2336;47.822;7.564;2022-09-30T14:31:12;16.20;99.90
4647;DHT22;2336;47.822;7.564;2022-09-30T14:33:40;16.30;99.90
4647;DHT22;2336;47.822;7.564;2022-09-30T14:36:12;16.30;99.90
4647;DHT22;2336;47.822;7.564;2022-09-30T14:38:43;16.30;99.90
4647;DHT22;2336;47.822;7.564;2022-09-30T14:41:16;16.10;99.90
4647;DHT22;2336;47.822;7.564;2022-09-30T14:43:45;16.10;99.90
4647;DHT22;2336;47.822;7.564;2022-09-30T14:46:24;16.00;99.90
4647;DHT22;2336;47.822;7.564;2022-09-30T14:48:53;16.10;99.90
4647;DHT22;2336;47.822;7.564;2022-09-30T14:51:20;16.20;99.90
4647;DHT22;2336;47.822;7.564;2022-09-30T14:53:53;16.30;99.90
4647;DHT22;2336;47.822;7.564;2022-09-30T14:56:24;16.30;99.90
4647;DHT22;2336;47.822;7.564;2022-09-30T14:58:52;16.30;99.90
4647;DHT22;2336;47.822;7.564;2022-09-30T15:01:23;16.20;99.90
4647;DHT22;2336;47.822;7.564;2022-09-30T15:03:53;16.10;99.90
4647;DHT22;2336;47.822;7.564;2022-09-30T15:06:23;15.90;99.90
4647;DHT22;2336;47.822;7.564;2022-09-30T15:08:59;15.70;99.90
4647;DHT22;2336;47.822;7.564;2022-09-30T15:11:27;15.50;99.90
4647;DHT22;2336;47.822;7.564;2022-09-30T15:13:58;15.40;99.90
4647;DHT22;2336;47.822;7.564;2022-09-30T15:16:28;15.40;99.90
4647;DHT22;2336;47.822;7.564;2022-09-30T15:18:56;15.40;99.90
4647;DHT22;2336;47.822;7.564;2022-09-30T15:21:26;15.30;99.90
4647;DHT22;2336;47.822;7.564;2022-09-30T15:23:55;15.30;99.90
4647;DHT22;2336;47.822;7.564;2022-09-30T15:26:24;15.30;99.90
4647;DHT22;2336;47.822;7.564;2022-09-30T15:28:52;15.30;99.90
4647;DHT22;2336;47.822;7.564;2022-09-30T15:31:23;15.30;99.90
4647;DHT22;2336;47.822;7.564;2022-09-30T15:34:14;15.40;99.90
4647;DHT22;2336;47.822;7.564;2022-09-30T15:36:43;15.50;99.90
4647;DHT22;2336;47.822;7.564;2022-09-30T15:39:20;15.50;99.90
4647;DHT22;2336;47.822;7.564;2022-09-30T15:41:48;15.60;99.90
4647;DHT22;2336;47.822;7.564;2022-09-30T15:44:17;15.70;99.90
4647;DHT22;2336;47.822;7.564;2022-09-30T15:47:00;15.70;99.90
4647;DHT22;2336;47.822;7.564;2022-09-30T15:49:44;15.70;99.90
4647;DHT22;2336;47.822;7.564;2022-09-30T15:52:29;15.70;99.90
4647;DHT22;2336;47.822;7.564;2022-09-30T15:55:29;15.70;99.90
4647;DHT22;2336;47.822;7.564;2022-09-30T15:57:54;15.60;99.90
4647;DHT22;2336;47.822;7.564;2022-09-30T16:00:39;15.60;99.90
4647;DHT22;2336;47.822;7.564;2022-09-30T16:03:24;15.50;99.90
4647;DHT22;2336;47.822;7.564;2022-09-30T16:06:04;15.50;99.90
4647;DHT22;2336;47.822;7.564;2022-09-30T16:08:39;15.50;99.90
4647;DHT22;2336;47.822;7.564;2022-09-30T16:11:20;15.50;99.90
4647;DHT22;2336;47.822;7.564;2022-09-30T16:13:48;15.40;99.90
4647;DHT22;2336;47.822;7.564;2022-09-30T16:16:19;15.40;99.90
4647;DHT22;2336;47.822;7.564;2022-09-30T16:18:47;15.40;99.90
4647;DHT22;2336;47.822;7.564;2022-09-30T16:21:37;15.40;99.90
4647;DHT22;2336;47.822;7.564;2022-09-30T16:24:43;15.30;99.90
4647;DHT22;2336;47.822;7.564;2022-09-30T16:27:25;15.20;99.90
4647;DHT22;2336;47.822;7.564;2022-09-30T16:29:56;15.10;99.90
4647;DHT22;2336;47.822;7.564;2022-09-30T16:32:26;15.00;99.90
4647;DHT22;2336;47.822;7.564;2022-09-30T16:34:56;14.90;99.90
4647;DHT22;2336;47.822;7.564;2022-09-30T16:37:25;14.80;99.90
4647;DHT22;2336;47.822;7.564;2022-09-30T16:39:51;14.70;99.90
4647;DHT22;2336;47.822;7.564;2022-09-30T16:42:18;14.50;99.90
4647;DHT22;2336;47.822;7.564;2022-09-30T16:44:45;14.40;99.90
4647;DHT22;2336;47.822;7.564;2022-09-30T16:47:13;14.20;99.90
4647;DHT22;2336;47.822;7.564;2022-09-30T16:49:41;14.10;99.90
4647;DHT22;2336;47.822;7.564;2022-09-30T16:52:09;13.90;99.90
4647;DHT22;2336;47.822;7.564;2022-09-30T16:54:38;13.80;99.90
4647;DHT22;2336;47.822;7.564;2022-09-30T16:57:05;13.70;99.90
4647;DHT22;2336;47.822;7.564;2022-09-30T16:59:32;13.60;99.90
4647;DHT22;2336;47.822;7.564;2022-09-30T17:01:59;13.50;99.90
4647;DHT22;2336;47.822;7.564;2022-09-30T17:04:27;13.40;99.90
4647;DHT22;2336;47.822;7.564;2022-09-30T17:06:56;13.30;99.90
4647;DHT22;2336;47.822;7.564;2022-09-30T17:09:23;13.20;99.90
4647;DHT22;2336;47.822;7.564;2022-09-30T17:11:51;13.10;99.90
4647;DHT22;2336;47.822;7.564;2022-09-30T17:14:18;13.10;99.90
4647;DHT22;2336;47.822;7.564;2022-09-30T17:16:45;13.00;99.90
4647;DHT22;2336;47.822;7.564;2022-09-30T17:19:12;12.90;99.90
4647;DHT22;2336;47.822;7.564;2022-09-30T17:21:39;12.80;99.90
4647;DHT22;2336;47.822;7.564;2022-09-30T17:24:06;12.70;99.90
4647;DHT22;2336;47.822;7.564;2022-09-30T17:26:32;12.70;99.90
4647;DHT22;2336;47.822;7.564;2022-09-30T17:29:01;12.60;99.90
4647;DHT22;2336;47.822;7.564;2022-09-30T17:31:28;12.50;99.90
4647;DHT22;2336;47.822;7.564;2022-09-30T17:33:55;12.40;99.90
4647;DHT22;2336;47.822;7.564;2022-09-30T17:36:22;12.30;99.90
4647;DHT22;2336;47.822;7.564;2022-09-30T17:38:52;12.20;99.90
4647;DHT22;2336;47.822;7.564;2022-09-30T17:41:20;12.30;99.90
4647;DHT22;2336;47.822;7.564;2022-09-30T17:44:05;12.50;99.90
4647;DHT22;2336;47.822;7.564;2022-09-30T17:46:40;12.40;99.90
4647;DHT22;2336;47.822;7.564;2022-09-30T17:49:07;12.40;99.90
4647;DHT22;2336;47.822;7.564;2022-09-30T17:51:34;12.30;99.90
4647;DHT22;2336;47.822;7.564;2022-09-30T17:54:03;12.20;99.90
4647;DHT22;2336;47.822;7.564;2022-09-30T17:56:29;12.20;99.90
4647;DHT22;2336;47.822;7.564;2022-09-30T17:58:56;12.20;99.90
4647;DHT22;2336;47.822;7.564;2022-09-30T18:01:28;12.10;99.90
4647;DHT22;2336;47.822;7.564;2022-09-30T18:03:59;12.10;99.90
4647;DHT22;2336;47.822;7.564;2022-09-30T18:06:26;12.20;99.90
4647;DHT22;2336;47.822;7.564;2022-09-30T18:08:54;12.20;99.90
4647;DHT22;2336;47.822;7.564;2022-09-30T18:11:21;12.30;99.90
4647;DHT22;2336;47.822;7.564;2022-09-30T18:13:52;12.30;99.90
4647;DHT22;2336;47.822;7.564;2022-09-30T18:16:22;12.40;99.90
4647;DHT22;2336;47.822;7.564;2022-09-30T18:18:51;12.40;99.90
4647;DHT22;2336;47.822;7.564;2022-09-30T18:21:17;12.40;99.90
4647;DHT22;2336;47.822;7.564;2022-09-30T18:23:44;12.40;99.90
4647;DHT22;2336;47.822;7.564;2022-09-30T18:26:11;12.40;99.90
4647;DHT22;2336;47.822;7.564;2022-09-30T18:28:38;12.30;99.90
4647;DHT22;2336;47.822;7.564;2022-09-30T18:31:05;12.30;99.90
4647;DHT22;2336;47.822;7.564;2022-09-30T18:33:32;12.20;99.90
4647;DHT22;2336;47.822;7.564;2022-09-30T18:36:01;12.10;99.90
4647;DHT22;2336;47.822;7.564;2022-09-30T18:38:32;12.10;99.90
4647;DHT22;2336;47.822;7.564;2022-09-30T18:40:58;12.10;99.90
4647;DHT22;2336;47.822;7.564;2022-09-30T18:43:25;12.10;99.90
4647;DHT22;2336;47.822;7.564;2022-09-30T18:45:53;12.10;99.90
4647;DHT22;2336;47.822;7.564;2022-09-30T18:48:21;12.00;99.90
4647;DHT22;2336;47.822;7.564;2022-09-30T18:50:48;12.00;99.90
4647;DHT22;2336;47.822;7.564;2022-09-30T18:53:17;11.90;99.90
4647;DHT22;2336;47.822;7.564;2022-09-30T18:55:44;11.80;99.90
4647;DHT22;2336;47.822;7.564;2022-09-30T18:58:11;11.90;99.90
4647;DHT22;2336;47.822;7.564;2022-09-30T19:00:40;11.90;99.90
4647;DHT22;2336;47.822;7.564;2022-09-30T19:03:07;11.80;99.90
4647;DHT22;2336;47.822;7.564;2022-09-30T19:05:38;11.70;99.90
4647;DHT22;2336;47.822;7.564;2022-09-30T19:08:05;11.60;99.90
4647;DHT22;2336;47.822;7.564;2022-09-30T19:10:37;11.60;99.90
4647;DHT22;2336;47.822;7.564;2022-09-30T19:13:06;11.50;99.90
4647;DHT22;2336;47.822;7.564;2022-09-30T19:15:35;11.50;99.90
4647;DHT22;2336;47.822;7.564;2022-09-30T19:18:02;11.40;99.90
4647;DHT22;2336;47.822;7.564;2022-09-30T19:20:30;11.40;99.90
4647;DHT22;2336;47.822;7.564;2022-09-30T19:23:01;11.30;99.90
4647;DHT22;2336;47.822;7.564;2022-09-30T19:25:27;11.30;99.90
4647;DHT22;2336;47.822;7.564;2022-09-30T19:27:55;11.20;99.90
4647;DHT22;2336;47.822;7.564;2022-09-30T19:30:24;11.20;99.90
4647;DHT22;2336;47.822;7.564;2022-09-30T19:32:54;11.20;99.90
4647;DHT22;2336;47.822;7.564;2022-09-30T19:35:25;11.30;99.90
4647;DHT22;2336;47.822;7.564;2022-09-30T19:37:52;11.20;99.90
4647;DHT22;2336;47.822;7.564;2022-09-30T19:40:21;11.20;99.90
4647;DHT22;2336;47.822;7.564;2022-09-30T19:42:48;11.30;99.90
4647;DHT22;2336;47.822;7.564;2022-09-30T19:45:16;11.30;99.90
4647;DHT22;2336;47.822;7.564;2022-09-30T19:47:45;11.40;99.90
4647;DHT22;2336;47.822;7.564;2022-09-30T19:50:12;11.40;99.90
4647;DHT22;2336;47.822;7.564;2022-09-30T19:52:39;11.50;99.90
4647;DHT22;2336;47.822;7.564;2022-09-30T19:55:07;11.40;99.90
4647;DHT22;2336;47.822;7.564;2022-09-30T19:57:34;11.40;99.90
4647;DHT22;2336;47.822;7.564;2022-09-30T20:00:01;11.30;99.90
4647;DHT22;2336;47.822;7.564;2022-09-30T20:02:29;11.20;99.90
4647;DHT22;2336;47.822;7.564;2022-09-30T20:04:56;11.20;99.90
4647;DHT22;2336;47.822;7.564;2022-09-30T20:07:26;11.10;99.90
4647;DHT22;2336;47.822;7.564;2022-09-30T20:09:53;11.10;99.90
4647;DHT22;2336;47.822;7.564;2022-09-30T20:12:20;11.00;99.90
4647;DHT22;2336;47.822;7.564;2022-09-30T20:14:46;11.00;99.90
4647;DHT22;2336;47.822;7.564;2022-09-30T20:17:32;11.00;99.90
4647;DHT22;2336;47.822;7.564;2022-09-30T20:19:59;11.00;99.90
4647;DHT22;2336;47.822;7.564;2022-09-30T20:22:44;11.00;99.90
4647;DHT22;2336;47.822;7.564;2022-09-30T20:25:10;11.00;99.90
4647;DHT22;2336;47.822;7.564;2022-09-30T20:27:38;10.90;99.90
4647;DHT22;2336;47.822;7.564;2022-09-30T20:30:07;11.00;99.90
4647;DHT22;2336;47.822;7.564;2022-09-30T20:32:35;10.90;99.90
4647;DHT22;2336;47.822;7.564;2022-09-30T20:35:02;10.90;99.90
4647;DHT22;2336;47.822;7.564;2022-09-30T20:37:29;10.90;99.90
4647;DHT22;2336;47.822;7.564;2022-09-30T20:39:56;10.80;99.90
4647;DHT22;2336;47.822;7.564;2022-09-30T20:42:22;10.80;99.90
4647;DHT22;2336;47.822;7.564;2022-09-30T20:44:57;10.80;99.90
4647;DHT22;2336;47.822;7.564;2022-09-30T20:47:27;10.80;99.90
4647;DHT22;2336;47.822;7.564;2022-09-30T20:49:56;10.80;99.90
4647;DHT22;2336;47.822;7.564;2022-09-30T20:52:23;10.80;99.90
4647;DHT22;2336;47.822;7.564;2022-09-30T20:54:49;10.70;99.90
4647;DHT22;2336;47.822;7.564;2022-09-30T20:57:17;10.70;99.90
4647;DHT22;2336;47.822;7.564;2022-09-30T20:59:44;10.70;99.90
